Bodajbo, Russia
Current Conditions -  °F | °C
As of 4:00 AM on Saturday 20 Dec 2014 (Local Time) from UIAA Reporting Station
Few Clouds Few Clouds  
Wind Chill: -15°   Ceiling: Unl
Heat Index: -15°   Visibility: 6mi
Dew Point: -18°   Wind: 2mph
Humidity: 84%   Direction: NA
Pressure: 30.18"   Gusts: NA
Location:  57.85°N, 114.19°E
Report Text: UIAA 192000Z VRB01MPS 9000 FEW100 M26/M28 Q1022 NOSIG RMKQFE707 29CLRD70
Loading
Personal Weather Stations






























Interactive Weather Map New forecast layout! Learn more

10-Day Weather Forecast

Advertisements
Track Severe Weather on mobile